createdAt,value
2018-07-24T00:00:04.092Z,26.48
2018-07-24T00:00:30.224Z,26.51
2018-07-24T00:00:56.356Z,26.43
2018-07-24T00:01:22.515Z,26.43
2018-07-24T00:01:48.646Z,26.43
2018-07-24T00:02:14.785Z,26.37
2018-07-24T00:02:40.937Z,26.38
2018-07-24T00:03:07.083Z,26.41
2018-07-24T00:03:33.233Z,26.47
2018-07-24T00:03:59.378Z,26.52
2018-07-24T00:04:25.512Z,26.48
2018-07-24T00:04:51.659Z,26.44
2018-07-24T00:05:17.782Z,26.41
2018-07-24T00:05:43.921Z,26.4
2018-07-24T00:06:10.376Z,26.43
2018-07-24T00:06:36.536Z,26.33
2018-07-24T00:07:02.697Z,26.43
2018-07-24T00:07:28.833Z,26.45
2018-07-24T00:07:56.161Z,26.37
2018-07-24T00:08:23.289Z,26.38
2018-07-24T00:08:49.430Z,26.36
2018-07-24T00:09:15.562Z,26.31
2018-07-24T00:09:41.694Z,26.37
2018-07-24T00:10:07.831Z,26.31
2018-07-24T00:10:33.989Z,26.26
2018-07-24T00:11:00.167Z,26.29
2018-07-24T00:11:26.258Z,26.26
2018-07-24T00:11:52.414Z,26.25
2018-07-24T00:12:18.551Z,26.28
2018-07-24T00:12:44.707Z,26.25
2018-07-24T00:13:10.862Z,26.31
2018-07-24T00:13:37.001Z,26.28
2018-07-24T00:14:03.135Z,26.16
2018-07-24T00:14:29.293Z,26.16
2018-07-24T00:14:55.463Z,26.16
2018-07-24T00:15:21.608Z,26.16
2018-07-24T00:15:47.741Z,26.21
2018-07-24T00:16:13.875Z,26.18
2018-07-24T00:16:40.008Z,26.13
2018-07-24T00:17:06.142Z,26.19
2018-07-24T00:17:32.298Z,26.15
2018-07-24T00:17:58.435Z,26.1
2018-07-24T00:18:24.570Z,26.19
2018-07-24T00:18:50.732Z,26.1
2018-07-24T00:19:16.876Z,26.1
2018-07-24T00:19:42.998Z,26.02
2018-07-24T00:20:09.159Z,26.16
2018-07-24T00:20:35.319Z,26.02
2018-07-24T00:21:01.459Z,26.02
2018-07-24T00:21:27.604Z,26.05
2018-07-24T00:21:53.751Z,26.16
2018-07-24T00:22:19.895Z,26.18
2018-07-24T00:22:46.029Z,26.09
2018-07-24T00:23:12.167Z,26.05
2018-07-24T00:23:38.309Z,26.13
2018-07-24T00:24:04.446Z,26.13
2018-07-24T00:24:30.598Z,26.03
2018-07-24T00:24:56.735Z,26.13
2018-07-24T00:25:22.870Z,26.1
2018-07-24T00:25:49.001Z,26.05
2018-07-24T00:26:15.132Z,26.15
2018-07-24T00:26:41.269Z,26.15
2018-07-24T00:27:07.403Z,26.09
2018-07-24T00:27:33.540Z,26.09
2018-07-24T00:27:59.675Z,26.15
2018-07-24T00:28:25.811Z,26.07
2018-07-24T00:28:51.950Z,26
2018-07-24T00:29:18.078Z,26.07
2018-07-24T00:29:44.260Z,26.06
2018-07-24T00:30:10.394Z,26.02
2018-07-24T00:30:36.528Z,26.02
2018-07-24T00:31:02.667Z,26
2018-07-24T00:31:28.880Z,26
2018-07-24T00:31:55.013Z,25.98
2018-07-24T00:32:21.174Z,26.02
2018-07-24T00:32:47.303Z,25.99
2018-07-24T00:33:13.468Z,25.99
2018-07-24T00:33:39.645Z,25.99
2018-07-24T00:34:05.798Z,26.02
2018-07-24T00:34:31.936Z,26
2018-07-24T00:34:58.066Z,26.03
2018-07-24T00:35:24.206Z,26.02
2018-07-24T00:35:50.361Z,26.05
2018-07-24T00:36:16.500Z,26.03
2018-07-24T00:36:42.627Z,26
2018-07-24T00:37:08.765Z,25.99
2018-07-24T00:37:34.902Z,26
2018-07-24T00:38:01.038Z,25.93
2018-07-24T00:38:27.168Z,25.93
2018-07-24T00:38:53.299Z,25.99
2018-07-24T00:39:19.454Z,25.93
2018-07-24T00:39:45.585Z,25.96
2018-07-24T00:40:11.741Z,25.91
2018-07-24T00:40:37.900Z,25.95
2018-07-24T00:41:04.042Z,25.96
2018-07-24T00:41:30.174Z,25.96
2018-07-24T00:41:56.302Z,25.98
2018-07-24T00:42:22.461Z,26
2018-07-24T00:42:48.615Z,25.98
2018-07-24T00:43:14.762Z,25.93
2018-07-24T00:43:40.925Z,26.02
2018-07-24T00:44:07.097Z,25.96
2018-07-24T00:44:33.226Z,26
2018-07-24T00:44:59.383Z,25.96
2018-07-24T00:45:25.572Z,25.99
2018-07-24T00:45:52.257Z,26
2018-07-24T00:46:18.399Z,26
2018-07-24T00:46:44.552Z,25.99
2018-07-24T00:47:10.686Z,25.9
2018-07-24T00:47:36.877Z,25.98
2018-07-24T00:48:03.009Z,25.99
2018-07-24T00:48:29.163Z,25.91
2018-07-24T00:48:55.296Z,25.98
2018-07-24T00:49:21.425Z,25.91
2018-07-24T00:49:47.560Z,26
2018-07-24T00:50:13.692Z,25.95
2018-07-24T00:50:39.817Z,25.88
2018-07-24T00:51:05.955Z,25.99
2018-07-24T00:51:32.084Z,25.96
2018-07-24T00:51:58.222Z,25.9
2018-07-24T00:52:24.377Z,25.96
2018-07-24T00:52:50.519Z,25.83
2018-07-24T00:53:16.661Z,25.78
2018-07-24T00:53:42.818Z,25.81
2018-07-24T00:54:08.996Z,25.75
2018-07-24T00:54:35.109Z,25.8
2018-07-24T00:55:01.274Z,25.75
2018-07-24T00:55:27.402Z,25.84
2018-07-24T00:55:53.537Z,25.83
2018-07-24T00:56:19.694Z,25.78
2018-07-24T00:56:45.833Z,25.7
2018-07-24T00:57:11.960Z,25.72
2018-07-24T00:57:38.095Z,25.8
2018-07-24T00:58:04.228Z,25.8
2018-07-24T00:58:30.366Z,25.72
2018-07-24T00:58:56.499Z,25.81
2018-07-24T00:59:22.638Z,25.72
2018-07-24T00:59:48.818Z,25.73
2018-07-24T01:00:14.974Z,25.81
2018-07-24T01:00:41.106Z,25.72
2018-07-24T01:01:07.247Z,25.77
2018-07-24T01:01:33.408Z,25.69
2018-07-24T01:01:59.566Z,25.72
2018-07-24T01:02:25.699Z,25.62
2018-07-24T01:02:51.828Z,25.65
2018-07-24T01:03:17.995Z,25.62
2018-07-24T01:03:44.129Z,25.59
2018-07-24T01:04:10.256Z,25.63
2018-07-24T01:04:36.391Z,25.78
2018-07-24T01:05:02.523Z,25.68
2018-07-24T01:05:28.680Z,25.77
2018-07-24T01:05:54.823Z,25.6
2018-07-24T01:06:20.955Z,25.7
2018-07-24T01:06:47.096Z,25.69
2018-07-24T01:07:13.249Z,25.75
2018-07-24T01:07:39.403Z,25.73
2018-07-24T01:08:05.534Z,25.65
2018-07-24T01:08:31.747Z,25.69
2018-07-24T01:08:57.840Z,25.73
2018-07-24T01:09:25.740Z,25.69
2018-07-24T01:09:53.608Z,25.63
2018-07-24T01:10:21.619Z,25.75
2018-07-24T01:10:50.576Z,25.62
2018-07-24T01:11:18.296Z,25.78
2018-07-24T01:11:44.350Z,25.7
2018-07-24T01:12:10.493Z,25.63
2018-07-24T01:12:36.621Z,25.66
2018-07-24T01:13:02.762Z,25.6
2018-07-24T01:13:28.915Z,25.59
2018-07-24T01:13:55.066Z,25.68
2018-07-24T01:14:21.199Z,25.72
2018-07-24T01:14:47.340Z,25.7
2018-07-24T01:15:13.478Z,25.66
2018-07-24T01:15:39.614Z,25.72
2018-07-24T01:16:05.742Z,25.75
2018-07-24T01:16:31.877Z,25.75
2018-07-24T01:16:58.008Z,25.75
2018-07-24T01:17:24.153Z,25.72
2018-07-24T01:17:50.284Z,25.77
2018-07-24T01:18:16.423Z,25.77
2018-07-24T01:18:42.555Z,25.77
2018-07-24T01:19:08.695Z,25.72
2018-07-24T01:19:34.829Z,25.7
2018-07-24T01:20:00.957Z,25.69
2018-07-24T01:20:27.094Z,25.69
2018-07-24T01:20:53.231Z,25.66
2018-07-24T01:21:19.364Z,25.63
2018-07-24T01:21:45.503Z,25.72
2018-07-24T01:22:11.635Z,25.65
2018-07-24T01:22:37.771Z,25.6
2018-07-24T01:23:03.908Z,25.72
2018-07-24T01:23:30.043Z,25.8
2018-07-24T01:23:56.199Z,25.72
2018-07-24T01:24:22.328Z,25.8
2018-07-24T01:24:48.468Z,25.75
2018-07-24T01:25:14.595Z,25.77
2018-07-24T01:25:40.733Z,25.77
2018-07-24T01:26:06.866Z,25.75
2018-07-24T01:26:33.026Z,25.8
2018-07-24T01:26:59.154Z,25.75
2018-07-24T01:27:25.306Z,25.81
2018-07-24T01:27:51.461Z,25.77
2018-07-24T01:28:17.589Z,25.81
2018-07-24T01:28:43.727Z,25.8
2018-07-24T01:29:09.883Z,25.8
2018-07-24T01:29:36.017Z,25.78
2018-07-24T01:30:02.164Z,25.73
2018-07-24T01:30:28.291Z,25.72
2018-07-24T01:30:54.433Z,25.77
2018-07-24T01:31:20.589Z,25.77
2018-07-24T01:31:46.725Z,25.77
2018-07-24T01:32:12.887Z,25.73
2018-07-24T01:32:39.048Z,25.77
2018-07-24T01:33:05.193Z,25.77
2018-07-24T01:33:31.328Z,25.7
2018-07-24T01:33:57.470Z,25.72
2018-07-24T01:34:23.609Z,25.72
2018-07-24T01:34:49.753Z,25.69
2018-07-24T01:35:15.932Z,25.75
2018-07-24T01:35:42.098Z,25.63
2018-07-24T01:36:08.258Z,25.65
2018-07-24T01:36:34.392Z,25.72
2018-07-24T01:37:00.553Z,25.65
2018-07-24T01:37:26.694Z,25.6
2018-07-24T01:37:52.835Z,25.68
2018-07-24T01:38:19.005Z,25.73
2018-07-24T01:38:45.164Z,25.69
2018-07-24T01:39:11.307Z,25.65
2018-07-24T01:39:37.480Z,25.72
2018-07-24T01:40:03.654Z,25.7
2018-07-24T01:40:29.811Z,25.68
2018-07-24T01:40:55.951Z,25.7
2018-07-24T01:41:22.094Z,25.6
2018-07-24T01:41:48.254Z,25.62
2018-07-24T01:42:14.391Z,25.66
2018-07-24T01:42:40.556Z,25.7
2018-07-24T01:43:06.701Z,25.75
2018-07-24T01:43:32.864Z,25.72
2018-07-24T01:43:58.998Z,25.72
2018-07-24T01:44:25.142Z,25.69
2018-07-24T01:44:51.278Z,25.62
2018-07-24T01:45:17.427Z,25.58
2018-07-24T01:45:43.561Z,25.54
2018-07-24T01:46:09.702Z,25.54
2018-07-24T01:46:35.863Z,25.48
2018-07-24T01:47:02.000Z,25.53
2018-07-24T01:47:28.145Z,25.4
2018-07-24T01:47:54.310Z,25.28
2018-07-24T01:48:20.449Z,25.28
2018-07-24T01:48:46.586Z,25.33
2018-07-24T01:49:12.732Z,25.29
2018-07-24T01:49:38.865Z,25.29
2018-07-24T01:50:05.013Z,25.31
2018-07-24T01:50:31.148Z,25.25
2018-07-24T01:50:57.313Z,25.26
2018-07-24T01:51:23.459Z,25.26
2018-07-24T01:51:49.609Z,25.14
2018-07-24T01:52:15.799Z,25.13
2018-07-24T01:52:41.937Z,25.23
2018-07-24T01:53:08.071Z,25.17
2018-07-24T01:53:34.236Z,25.16
2018-07-24T01:54:00.376Z,25.18
2018-07-24T01:54:26.512Z,25.18
2018-07-24T01:54:52.651Z,25.18
2018-07-24T01:55:18.791Z,25.23
2018-07-24T01:55:44.927Z,25.18
2018-07-24T01:56:11.061Z,25.16
2018-07-24T01:56:37.203Z,25.18
2018-07-24T01:57:03.341Z,25.06
2018-07-24T01:57:29.507Z,25.04
2018-07-24T01:57:55.642Z,24.98
2018-07-24T01:58:21.813Z,24.91
2018-07-24T01:58:47.945Z,24.88
2018-07-24T01:59:14.090Z,24.92
2018-07-24T01:59:40.228Z,24.88
2018-07-24T02:00:06.373Z,24.89
2018-07-24T02:00:32.514Z,24.85
2018-07-24T02:00:58.649Z,24.73
2018-07-24T02:01:24.784Z,24.74
2018-07-24T02:01:50.924Z,24.74
2018-07-24T02:02:17.079Z,24.74
2018-07-24T02:02:43.223Z,24.78
2018-07-24T02:03:09.381Z,24.77
2018-07-24T02:03:35.521Z,24.85
2018-07-24T02:04:01.668Z,24.78
2018-07-24T02:04:27.803Z,24.74
2018-07-24T02:04:53.937Z,24.74
2018-07-24T02:05:20.079Z,24.74
2018-07-24T02:05:46.217Z,24.74
2018-07-24T02:06:12.363Z,24.77
2018-07-24T02:06:38.496Z,24.78
2018-07-24T02:07:04.642Z,24.8
2018-07-24T02:07:30.785Z,24.81
2018-07-24T02:07:56.949Z,24.8
2018-07-24T02:08:23.091Z,24.8
2018-07-24T02:08:49.226Z,24.78
2018-07-24T02:09:15.370Z,24.81
2018-07-24T02:09:41.499Z,24.78
2018-07-24T02:10:07.637Z,24.74
2018-07-24T02:10:33.777Z,24.76
2018-07-24T02:10:59.917Z,24.78
2018-07-24T02:11:26.081Z,24.81
2018-07-24T02:11:52.228Z,24.81
2018-07-24T02:12:18.358Z,24.78
2018-07-24T02:12:44.497Z,24.81
2018-07-24T02:13:10.664Z,24.84
2018-07-24T02:13:36.803Z,24.77
2018-07-24T02:14:02.945Z,24.78
2018-07-24T02:14:29.111Z,24.7
2018-07-24T02:14:55.257Z,24.77
2018-07-24T02:15:21.440Z,24.74
2018-07-24T02:15:47.581Z,24.8
2018-07-24T02:16:13.748Z,24.78
2018-07-24T02:16:39.893Z,24.81
2018-07-24T02:17:06.078Z,24.74
2018-07-24T02:17:32.210Z,24.8
2018-07-24T02:17:58.351Z,24.74
2018-07-24T02:18:24.493Z,24.74
2018-07-24T02:18:50.651Z,24.8
2018-07-24T02:19:16.790Z,24.76
2018-07-24T02:19:42.926Z,24.81
2018-07-24T02:20:09.076Z,24.76
2018-07-24T02:20:35.209Z,24.84
2018-07-24T02:21:01.352Z,24.8
2018-07-24T02:21:27.488Z,24.78
2018-07-24T02:21:53.627Z,24.8
2018-07-24T02:22:19.764Z,24.81
2018-07-24T02:22:45.904Z,24.8
2018-07-24T02:23:12.049Z,24.78
2018-07-24T02:23:38.204Z,24.81
2018-07-24T02:24:04.343Z,24.76
2018-07-24T02:24:30.505Z,24.68
2018-07-24T02:24:56.651Z,24.73
2018-07-24T02:25:22.790Z,24.69
2018-07-24T02:25:48.949Z,24.73
2018-07-24T02:26:15.090Z,24.74
2018-07-24T02:26:41.251Z,24.76
2018-07-24T02:27:07.389Z,24.74
2018-07-24T02:27:33.523Z,24.8
2018-07-24T02:27:59.666Z,24.69
2018-07-24T02:28:25.804Z,24.69
2018-07-24T02:28:51.945Z,24.7
2018-07-24T02:29:18.111Z,24.76
2018-07-24T02:29:44.264Z,24.76
2018-07-24T02:30:10.409Z,24.78
2018-07-24T02:30:36.596Z,24.78
2018-07-24T02:31:02.741Z,24.65
2018-07-24T02:31:28.902Z,24.78
2018-07-24T02:31:55.111Z,24.76
2018-07-24T02:32:21.224Z,24.76
2018-07-24T02:32:47.381Z,24.61
2018-07-24T02:33:13.520Z,24.8
2018-07-24T02:33:39.682Z,24.73
2018-07-24T02:34:05.878Z,24.7
2018-07-24T02:34:32.069Z,24.69
2018-07-24T02:34:58.236Z,24.66
2018-07-24T02:35:24.411Z,24.66
2018-07-24T02:35:50.551Z,24.61
2018-07-24T02:36:16.726Z,24.65
2018-07-24T02:36:42.857Z,24.69
2018-07-24T02:37:09.038Z,24.69
2018-07-24T02:37:35.200Z,24.57
2018-07-24T02:38:01.347Z,24.54
2018-07-24T02:38:27.531Z,24.57
2018-07-24T02:38:53.691Z,24.61
2018-07-24T02:39:19.831Z,24.58
2018-07-24T02:39:45.994Z,24.61
2018-07-24T02:40:12.157Z,24.6
2018-07-24T02:40:38.319Z,24.68
2018-07-24T02:41:04.503Z,24.66
2018-07-24T02:41:30.657Z,24.54
2018-07-24T02:41:56.847Z,24.58
2018-07-24T02:42:22.988Z,24.54
2018-07-24T02:42:49.125Z,24.55
2018-07-24T02:43:15.267Z,24.58
2018-07-24T02:43:41.464Z,24.58
2018-07-24T02:44:07.649Z,24.4
2018-07-24T02:44:33.791Z,24.39
2018-07-24T02:44:59.949Z,24.29
2018-07-24T02:45:26.107Z,24.32
2018-07-24T02:45:52.268Z,24.3
2018-07-24T02:46:18.444Z,24.36
2018-07-24T02:46:44.602Z,24.26
2018-07-24T02:47:10.746Z,24.29
2018-07-24T02:47:36.876Z,24.26
2018-07-24T02:48:03.022Z,24.32
2018-07-24T02:48:29.181Z,24.33
2018-07-24T02:48:55.353Z,24.26
2018-07-24T02:49:21.495Z,24.33
2018-07-24T02:49:47.636Z,24.33
2018-07-24T02:50:13.823Z,24.26
2018-07-24T02:50:39.988Z,24.21
2018-07-24T02:51:06.150Z,24.18
2018-07-24T02:51:32.311Z,24.13
2018-07-24T02:51:58.499Z,23.99
2018-07-24T02:52:24.704Z,24.1
2018-07-24T02:52:50.842Z,24.03
2018-07-24T02:53:16.984Z,23.91
2018-07-24T02:53:43.149Z,23.96
2018-07-24T02:54:09.313Z,23.91
2018-07-24T02:54:35.456Z,23.86
2018-07-24T02:55:01.592Z,23.83
2018-07-24T02:55:27.761Z,23.84
2018-07-24T02:55:53.963Z,23.86
2018-07-24T02:56:20.101Z,23.74
2018-07-24T02:56:46.271Z,23.78
2018-07-24T02:57:12.406Z,23.65
2018-07-24T02:57:38.568Z,23.62
2018-07-24T02:58:04.715Z,23.59
2018-07-24T02:58:30.848Z,23.5
2018-07-24T02:58:57.034Z,23.54
2018-07-24T02:59:23.220Z,23.48
2018-07-24T02:59:49.359Z,23.41
2018-07-24T03:00:15.502Z,23.43
2018-07-24T03:00:41.644Z,23.46
2018-07-24T03:01:07.780Z,23.44
2018-07-24T03:01:33.958Z,23.41
2018-07-24T03:02:00.100Z,23.46
2018-07-24T03:02:26.237Z,23.51
2018-07-24T03:02:52.498Z,23.46
2018-07-24T03:03:18.813Z,23.44
2018-07-24T03:03:45.108Z,23.31
2018-07-24T03:04:11.403Z,23.34
2018-07-24T03:04:37.722Z,23.32
2018-07-24T03:05:03.856Z,23.27
2018-07-24T03:05:30.031Z,23.18
2018-07-24T03:05:56.196Z,23.12
2018-07-24T03:06:22.357Z,23.13
2018-07-24T03:06:48.494Z,23.12
2018-07-24T03:07:14.630Z,23.09
2018-07-24T03:07:40.799Z,23.03
2018-07-24T03:08:07.010Z,23.09
2018-07-24T03:08:33.198Z,23
2018-07-24T03:08:59.360Z,23.09
2018-07-24T03:09:25.496Z,22.96
2018-07-24T03:09:51.653Z,22.91
2018-07-24T03:10:17.811Z,22.88
2018-07-24T03:10:43.967Z,22.9
2018-07-24T03:11:10.132Z,22.98
2018-07-24T03:11:36.288Z,22.91
2018-07-24T03:12:02.427Z,22.91
2018-07-24T03:12:28.571Z,22.91
2018-07-24T03:12:54.712Z,22.91
2018-07-24T03:13:20.873Z,22.87
2018-07-24T03:13:47.032Z,22.9
2018-07-24T03:14:13.218Z,23
2018-07-24T03:14:39.368Z,22.99
2018-07-24T03:15:05.527Z,23.09
2018-07-24T03:15:31.719Z,23.13
2018-07-24T03:15:57.881Z,23.17
2018-07-24T03:16:24.116Z,23.21
2018-07-24T03:16:50.221Z,23.24
2018-07-24T03:17:16.387Z,23.36
2018-07-24T03:17:42.531Z,23.31
2018-07-24T03:18:08.752Z,23.27
2018-07-24T03:18:34.889Z,23.27
2018-07-24T03:19:01.048Z,23.24
2018-07-24T03:19:27.209Z,23.2
2018-07-24T03:19:53.359Z,23.25
2018-07-24T03:20:19.516Z,23.25
2018-07-24T03:20:45.728Z,23.23
2018-07-24T03:21:11.893Z,23.25
2018-07-24T03:21:38.056Z,23.39
2018-07-24T03:22:04.258Z,23.31
2018-07-24T03:22:30.343Z,23.31
2018-07-24T03:22:56.475Z,23.27
2018-07-24T03:23:22.649Z,23.41
2018-07-24T03:23:48.826Z,23.44
2018-07-24T03:24:14.962Z,23.48
2018-07-24T03:24:41.136Z,23.55
2018-07-24T03:25:07.364Z,23.48
2018-07-24T03:25:33.512Z,23.61
2018-07-24T03:25:59.662Z,23.54
2018-07-24T03:26:25.827Z,23.56
2018-07-24T03:26:51.962Z,23.56
2018-07-24T03:27:18.112Z,23.48
2018-07-24T03:27:44.241Z,23.59
2018-07-24T03:28:10.388Z,23.65
2018-07-24T03:28:36.529Z,23.56
2018-07-24T03:29:02.669Z,23.59
2018-07-24T03:29:28.807Z,23.55
2018-07-24T03:29:54.978Z,23.66
2018-07-24T03:30:21.125Z,23.61
2018-07-24T03:30:47.288Z,23.59
2018-07-24T03:31:13.457Z,23.51
2018-07-24T03:31:39.715Z,23.46
2018-07-24T03:32:05.925Z,23.48
2018-07-24T03:32:32.066Z,23.47
2018-07-24T03:32:58.197Z,23.47
2018-07-24T03:33:24.342Z,23.48
2018-07-24T03:33:50.506Z,23.46
2018-07-24T03:34:16.649Z,23.44
2018-07-24T03:34:42.816Z,23.44
2018-07-24T03:35:08.980Z,23.48
2018-07-24T03:35:35.108Z,23.48
2018-07-24T03:36:01.255Z,23.47
2018-07-24T03:36:27.392Z,23.5
2018-07-24T03:36:53.536Z,23.51
2018-07-24T03:37:19.717Z,23.54
2018-07-24T03:37:45.852Z,23.58
2018-07-24T03:38:11.992Z,23.63
2018-07-24T03:38:38.156Z,23.58
2018-07-24T03:39:04.302Z,23.51
2018-07-24T03:39:30.441Z,23.56
2018-07-24T03:39:56.604Z,23.48
2018-07-24T03:40:22.740Z,23.5
2018-07-24T03:40:48.882Z,23.58
2018-07-24T03:41:15.045Z,23.56
2018-07-24T03:41:41.183Z,23.62
2018-07-24T03:42:07.320Z,23.54
2018-07-24T03:42:33.459Z,23.59
2018-07-24T03:42:59.626Z,23.46
2018-07-24T03:43:25.767Z,23.58
2018-07-24T03:43:51.904Z,23.56
2018-07-24T03:44:18.042Z,23.56
2018-07-24T03:44:44.188Z,23.58
2018-07-24T03:45:10.382Z,23.54
2018-07-24T03:45:36.489Z,23.58
2018-07-24T03:46:02.670Z,23.46
2018-07-24T03:46:28.807Z,23.58
2018-07-24T03:46:54.947Z,23.56
2018-07-24T03:47:21.091Z,23.5
2018-07-24T03:47:47.224Z,23.56
2018-07-24T03:48:13.362Z,23.56
2018-07-24T03:48:39.500Z,23.51
2018-07-24T03:49:05.661Z,23.51
2018-07-24T03:49:31.796Z,23.58
2018-07-24T03:49:57.965Z,23.5
2018-07-24T03:50:24.104Z,23.59
2018-07-24T03:50:50.271Z,23.58
2018-07-24T03:51:16.409Z,23.55
2018-07-24T03:51:42.549Z,23.59
2018-07-24T03:52:08.689Z,23.61
2018-07-24T03:52:34.829Z,23.51
2018-07-24T03:53:00.977Z,23.59
2018-07-24T03:53:27.136Z,23.55
2018-07-24T03:53:53.274Z,23.48
2018-07-24T03:54:19.405Z,23.51
2018-07-24T03:54:45.567Z,23.28
2018-07-24T03:55:11.711Z,23.34
2018-07-24T03:55:37.848Z,23.24
2018-07-24T03:56:04.014Z,23.25
2018-07-24T03:56:30.144Z,23.24
2018-07-24T03:56:56.280Z,23.24
2018-07-24T03:57:22.423Z,23.27
2018-07-24T03:57:48.590Z,23.37
2018-07-24T03:58:14.754Z,23.28
2018-07-24T03:58:40.889Z,23.27
2018-07-24T03:59:07.032Z,23.27
2018-07-24T03:59:33.169Z,23.23
2018-07-24T03:59:59.357Z,23.28
2018-07-24T04:00:25.501Z,23.28
2018-07-24T04:00:51.639Z,23.24
2018-07-24T04:01:17.801Z,23.34
2018-07-24T04:01:43.945Z,23.27
2018-07-24T04:02:10.092Z,23.24
2018-07-24T04:02:36.245Z,23.37
2018-07-24T04:03:02.383Z,23.34
2018-07-24T04:03:28.527Z,23.4
2018-07-24T04:03:54.668Z,23.44
2018-07-24T04:04:20.824Z,23.41
2018-07-24T04:04:46.962Z,23.41
2018-07-24T04:05:13.099Z,23.43
2018-07-24T04:05:39.240Z,23.47
2018-07-24T04:06:05.375Z,23.41
2018-07-24T04:06:31.516Z,23.44
2018-07-24T04:06:57.654Z,23.47
2018-07-24T04:07:23.791Z,23.4
2018-07-24T04:07:49.974Z,23.39
2018-07-24T04:08:16.119Z,23.39
2018-07-24T04:08:42.251Z,23.46
2018-07-24T04:09:08.395Z,23.47
2018-07-24T04:09:34.530Z,23.48
2018-07-24T04:10:00.675Z,23.54
2018-07-24T04:10:26.821Z,23.48
2018-07-24T04:10:52.983Z,23.36
2018-07-24T04:11:19.125Z,23.46
2018-07-24T04:11:45.274Z,23.4
2018-07-24T04:12:11.433Z,23.39
2018-07-24T04:12:37.596Z,23.5
2018-07-24T04:13:03.764Z,23.48
2018-07-24T04:13:29.898Z,23.39
2018-07-24T04:13:56.037Z,23.5
2018-07-24T04:14:22.194Z,23.48
2018-07-24T04:14:48.340Z,23.4
2018-07-24T04:15:14.479Z,23.39
2018-07-24T04:15:40.646Z,23.43
2018-07-24T04:16:06.782Z,23.41
2018-07-24T04:16:32.931Z,23.36
2018-07-24T04:16:59.064Z,23.47
2018-07-24T04:17:25.203Z,23.4
2018-07-24T04:17:51.344Z,23.43
2018-07-24T04:18:17.490Z,23.37
2018-07-24T04:18:43.622Z,23.36
2018-07-24T04:19:09.776Z,23.32
2018-07-24T04:19:35.916Z,23.32
2018-07-24T04:20:02.077Z,23.37
2018-07-24T04:20:28.217Z,23.36
2018-07-24T04:20:54.380Z,23.34
2018-07-24T04:21:20.520Z,23.24
2018-07-24T04:21:46.679Z,23.27
2018-07-24T04:22:12.819Z,23.28
2018-07-24T04:22:38.978Z,23.31
2018-07-24T04:23:05.168Z,23.25
2018-07-24T04:23:31.307Z,23.23
2018-07-24T04:23:57.469Z,23.2
2018-07-24T04:24:23.649Z,23.2
2018-07-24T04:24:49.868Z,23.23
2018-07-24T04:25:16.010Z,23.23
2018-07-24T04:25:42.169Z,23.21
2018-07-24T04:26:08.309Z,23.27
2018-07-24T04:26:34.469Z,23.21
2018-07-24T04:27:00.608Z,23.18
2018-07-24T04:27:26.745Z,23.21
2018-07-24T04:27:52.907Z,23.23
2018-07-24T04:28:19.050Z,23.23
2018-07-24T04:28:45.181Z,23.23
2018-07-24T04:29:11.322Z,23.24
2018-07-24T04:29:37.461Z,23.25
2018-07-24T04:30:03.625Z,23.23
2018-07-24T04:30:29.786Z,23.21
2018-07-24T04:30:56.000Z,23.2
2018-07-24T04:31:22.110Z,23.2
2018-07-24T04:31:48.245Z,23.2
2018-07-24T04:32:14.443Z,23.23
2018-07-24T04:32:40.602Z,23.25
2018-07-24T04:33:06.784Z,23.28
2018-07-24T04:33:33.012Z,23.27
2018-07-24T04:33:59.154Z,23.23
2018-07-24T04:34:25.292Z,23.2
2018-07-24T04:34:51.481Z,23.21
2018-07-24T04:35:17.615Z,23.18
2018-07-24T04:35:43.766Z,23.21
2018-07-24T04:36:09.899Z,23.23
2018-07-24T04:36:36.045Z,23.2
2018-07-24T04:37:02.181Z,23.18
2018-07-24T04:37:28.323Z,23.32
2018-07-24T04:37:54.481Z,23.37
2018-07-24T04:38:20.611Z,23.36
2018-07-24T04:38:46.763Z,23.28
2018-07-24T04:39:12.904Z,23.39
2018-07-24T04:39:39.043Z,23.2
2018-07-24T04:40:05.223Z,23.34
2018-07-24T04:40:31.377Z,23.24
2018-07-24T04:40:57.547Z,23.24
2018-07-24T04:41:23.686Z,23.34
2018-07-24T04:41:49.827Z,23.28
2018-07-24T04:42:16.011Z,23.25
2018-07-24T04:42:42.156Z,23.28
2018-07-24T04:43:08.290Z,23.27
2018-07-24T04:43:34.426Z,23.32
2018-07-24T04:44:00.565Z,23.28
2018-07-24T04:44:26.711Z,23.27
2018-07-24T04:44:52.869Z,23.32
2018-07-24T04:45:19.004Z,23.44
2018-07-24T04:45:45.147Z,23.43
2018-07-24T04:46:11.286Z,23.44
2018-07-24T04:46:37.451Z,23.47
2018-07-24T04:47:03.620Z,23.51
2018-07-24T04:47:29.756Z,23.44
2018-07-24T04:47:55.902Z,23.59
2018-07-24T04:48:22.070Z,23.48
2018-07-24T04:48:48.167Z,23.58
2018-07-24T04:49:14.311Z,23.58
2018-07-24T04:49:40.477Z,23.59
2018-07-24T04:50:06.606Z,23.58
2018-07-24T04:50:32.751Z,23.51
2018-07-24T04:50:58.889Z,23.61
2018-07-24T04:51:25.030Z,23.65
2018-07-24T04:51:51.169Z,23.55
2018-07-24T04:52:17.312Z,23.59
2018-07-24T04:52:43.445Z,23.71
2018-07-24T04:53:09.581Z,23.63
2018-07-24T04:53:35.720Z,23.65
2018-07-24T04:54:01.859Z,23.66
2018-07-24T04:54:28.027Z,23.69
2018-07-24T04:54:54.201Z,23.66
2018-07-24T04:55:20.339Z,23.59
2018-07-24T04:55:46.496Z,23.65
2018-07-24T04:56:12.633Z,23.65
2018-07-24T04:56:38.773Z,23.66
2018-07-24T04:57:04.919Z,23.61
2018-07-24T04:57:31.081Z,23.61
2018-07-24T04:57:57.220Z,23.63
2018-07-24T04:58:23.360Z,23.71
2018-07-24T04:58:49.502Z,23.74
2018-07-24T04:59:15.635Z,23.69
2018-07-24T04:59:41.810Z,23.71
2018-07-24T05:00:07.973Z,23.65
2018-07-24T05:00:34.114Z,23.68
2018-07-24T05:01:00.304Z,23.66
2018-07-24T05:01:26.470Z,23.68
2018-07-24T05:01:52.607Z,23.76
2018-07-24T05:02:18.744Z,23.8
2018-07-24T05:02:44.890Z,23.76
2018-07-24T05:03:11.064Z,23.87
2018-07-24T05:03:37.204Z,23.88
2018-07-24T05:04:03.335Z,23.98
2018-07-24T05:04:29.492Z,23.96
2018-07-24T05:04:55.632Z,23.99
2018-07-24T05:05:21.773Z,24.01
2018-07-24T05:05:47.911Z,24.13
2018-07-24T05:06:14.055Z,24.02
2018-07-24T05:06:40.189Z,23.99
2018-07-24T05:07:06.324Z,24.08
2018-07-24T05:07:32.465Z,24.03
2018-07-24T05:07:58.602Z,24.1
2018-07-24T05:08:24.736Z,24.11
2018-07-24T05:08:50.872Z,24.03
2018-07-24T05:09:17.044Z,24.05
2018-07-24T05:09:43.186Z,24.05
2018-07-24T05:10:09.348Z,24.1
2018-07-24T05:10:35.557Z,24.11
2018-07-24T05:11:01.680Z,24.05
2018-07-24T05:11:27.861Z,24.05
2018-07-24T05:11:54.002Z,24.05
2018-07-24T05:12:20.162Z,24.08
2018-07-24T05:12:46.301Z,24.06
2018-07-24T05:13:12.445Z,24.02
2018-07-24T05:13:38.584Z,24.11
2018-07-24T05:14:04.740Z,24.01
2018-07-24T05:14:30.899Z,23.99
2018-07-24T05:14:57.039Z,24.03
2018-07-24T05:15:23.184Z,23.99
2018-07-24T05:15:49.328Z,24.01
2018-07-24T05:16:15.467Z,24.01
2018-07-24T05:16:41.637Z,24.06
2018-07-24T05:17:07.753Z,23.99
2018-07-24T05:17:33.897Z,23.98
2018-07-24T05:18:00.040Z,24.01
2018-07-24T05:18:26.175Z,23.95
2018-07-24T05:18:52.323Z,23.98
2018-07-24T05:19:18.447Z,23.93
2018-07-24T05:19:44.596Z,23.92
2018-07-24T05:20:10.736Z,23.88
2018-07-24T05:20:36.875Z,23.83
2018-07-24T05:21:03.017Z,23.88
2018-07-24T05:21:29.154Z,23.92
2018-07-24T05:21:55.315Z,23.88
2018-07-24T05:22:21.448Z,23.93
2018-07-24T05:22:47.612Z,23.81
2018-07-24T05:23:13.747Z,23.88
2018-07-24T05:23:39.949Z,23.92
2018-07-24T05:24:06.062Z,23.91
2018-07-24T05:24:32.203Z,24.01
2018-07-24T05:24:58.383Z,23.99
2018-07-24T05:25:24.506Z,23.96
2018-07-24T05:25:50.704Z,24.02
2018-07-24T05:26:16.784Z,24.03
2018-07-24T05:26:42.955Z,24.05
2018-07-24T05:27:09.097Z,24.08
2018-07-24T05:27:35.256Z,24.03
2018-07-24T05:28:01.403Z,24.1
2018-07-24T05:28:27.558Z,24.06
2018-07-24T05:28:53.701Z,24.05
2018-07-24T05:29:19.836Z,24.08
2018-07-24T05:29:46.006Z,24.08
2018-07-24T05:30:12.171Z,24.13
2018-07-24T05:30:38.308Z,24.13
2018-07-24T05:31:04.446Z,24.2
2018-07-24T05:31:30.587Z,24.16
2018-07-24T05:31:56.730Z,24.16
2018-07-24T05:32:22.871Z,24.18
2018-07-24T05:32:49.014Z,24.23
2018-07-24T05:33:15.279Z,24.2
2018-07-24T05:33:41.383Z,24.17
2018-07-24T05:34:07.545Z,24.2
2018-07-24T05:34:33.704Z,24.23
2018-07-24T05:34:59.851Z,24.3
2018-07-24T05:35:25.992Z,24.35
2018-07-24T05:35:52.127Z,24.33
2018-07-24T05:36:18.271Z,24.3
2018-07-24T05:36:44.416Z,24.33
2018-07-24T05:37:10.608Z,24.33
2018-07-24T05:37:36.750Z,24.32
2018-07-24T05:38:02.914Z,24.33
2018-07-24T05:38:29.051Z,24.35